createdAt,value
2022-08-22T00:02:41.270Z,99.90
2022-08-22T00:02:42.144Z,99.90
2022-08-22T00:02:46.808Z,99.90
2022-08-22T00:03:07.955Z,99.90
2022-08-22T00:05:29.885Z,99.90
2022-08-22T00:08:20.561Z,99.90
2022-08-22T00:11:26.188Z,99.90
2022-08-22T00:14:08.195Z,99.90
2022-08-22T00:17:01.903Z,99.90
2022-08-22T00:19:51.666Z,99.90
2022-08-22T00:22:36.275Z,99.90
2022-08-22T00:25:34.125Z,99.90
2022-08-22T00:28:10.837Z,99.90
2022-08-22T00:31:13.971Z,99.90
2022-08-22T00:34:10.430Z,99.90
2022-08-22T00:37:02.618Z,99.90
2022-08-22T00:39:40.834Z,99.90
2022-08-22T00:42:41.516Z,99.90
2022-08-22T00:45:31.871Z,99.90
2022-08-22T00:48:17.458Z,99.90
2022-08-22T00:51:08.497Z,99.90
2022-08-22T00:53:41.403Z,99.90
2022-08-22T00:56:52.450Z,99.90
2022-08-22T00:59:41.513Z,99.90
2022-08-22T01:02:23.822Z,99.90
2022-08-22T01:04:51.195Z,99.90
2022-08-22T01:07:54.608Z,99.90
2022-08-22T01:10:47.490Z,99.90
2022-08-22T01:13:33.443Z,99.90
2022-08-22T01:16:38.834Z,99.90
2022-08-22T01:19:35.059Z,99.90
2022-08-22T01:22:20.982Z,99.90
2022-08-22T01:25:26.087Z,99.90
2022-08-22T01:28:27.633Z,99.90
2022-08-22T01:31:32.066Z,99.90
2022-08-22T01:34:17.908Z,99.90
2022-08-22T01:36:50.977Z,99.90
2022-08-22T01:40:02.348Z,99.90
2022-08-22T01:42:50.835Z,99.90
2022-08-22T01:45:20.682Z,99.90
2022-08-22T01:48:16.741Z,99.90
2022-08-22T01:51:16.456Z,99.90
2022-08-22T01:54:11.702Z,99.90
2022-08-22T01:56:47.026Z,99.90
2022-08-22T01:59:25.376Z,99.90
2022-08-22T02:02:29.773Z,99.90
2022-08-22T02:05:12.211Z,99.90
2022-08-22T02:07:48.990Z,99.90
2022-08-22T02:10:45.040Z,99.90
2022-08-22T02:13:14.933Z,99.90
2022-08-22T02:15:44.009Z,99.90
2022-08-22T02:18:19.681Z,99.90
2022-08-22T02:21:12.310Z,99.90
2022-08-22T02:24:01.149Z,99.90
2022-08-22T02:26:50.488Z,99.90
2022-08-22T02:29:31.210Z,99.90
2022-08-22T02:32:10.503Z,99.90
2022-08-22T02:35:01.493Z,99.90
2022-08-22T02:37:43.559Z,99.90
2022-08-22T02:40:23.390Z,99.90
2022-08-22T02:43:21.398Z,99.90
2022-08-22T02:46:13.036Z,99.90
2022-08-22T02:49:07.982Z,99.90
2022-08-22T02:51:52.494Z,99.90
2022-08-22T02:54:35.725Z,99.90
2022-08-22T02:57:14.434Z,99.90
2022-08-22T03:00:00.382Z,99.90
2022-08-22T03:02:59.829Z,99.90
2022-08-22T03:05:39.126Z,99.90
2022-08-22T03:08:23.693Z,99.90
2022-08-22T03:11:28.589Z,99.90
2022-08-22T03:14:20.185Z,99.90
2022-08-22T03:17:00.927Z,99.90
2022-08-22T03:19:51.347Z,99.90
2022-08-22T03:22:29.016Z,99.90
2022-08-22T03:25:14.906Z,99.90
2022-08-22T03:27:58.059Z,99.90
2022-08-22T03:30:42.141Z,99.90
2022-08-22T03:33:24.929Z,99.90
2022-08-22T03:36:11.797Z,99.90
2022-08-22T03:38:49.155Z,99.90
2022-08-22T03:41:19.322Z,99.90
2022-08-22T03:43:59.411Z,99.90
2022-08-22T03:46:39.409Z,99.90
2022-08-22T03:49:27.553Z,99.90
2022-08-22T03:52:07.060Z,99.90
2022-08-22T03:55:21.252Z,99.90
2022-08-22T03:58:27.949Z,99.90
2022-08-22T04:01:26.694Z,99.90
2022-08-22T04:04:15.045Z,99.90
2022-08-22T04:07:17.766Z,99.90
2022-08-22T04:10:20.074Z,99.90
2022-08-22T04:12:53.314Z,99.90
2022-08-22T04:15:57.530Z,99.90
2022-08-22T04:18:27.848Z,99.90
2022-08-22T04:21:10.939Z,99.90
2022-08-22T04:23:55.951Z,99.90
2022-08-22T04:26:32.833Z,99.90
2022-08-22T04:29:07.918Z,99.90
2022-08-22T04:31:48.041Z,99.90
2022-08-22T04:34:28.966Z,99.90
2022-08-22T04:37:09.172Z,99.90
2022-08-22T04:39:48.577Z,99.90
2022-08-22T04:42:36.786Z,99.90
2022-08-22T04:45:17.320Z,99.90
2022-08-22T04:47:54.873Z,99.90
2022-08-22T04:50:41.207Z,99.90
2022-08-22T04:53:33.139Z,99.90
2022-08-22T04:56:30.779Z,99.90
2022-08-22T04:59:07.870Z,99.90
2022-08-22T05:02:06.829Z,99.90
2022-08-22T05:04:46.093Z,99.90
2022-08-22T05:07:25.345Z,99.90
2022-08-22T05:09:59.285Z,99.90
2022-08-22T05:12:35.074Z,99.90
2022-08-22T05:15:10.312Z,99.90
2022-08-22T05:17:40.587Z,99.90
2022-08-22T05:20:12.276Z,99.90
2022-08-22T05:22:47.819Z,99.90
2022-08-22T05:25:27.866Z,99.90
2022-08-22T05:28:12.173Z,99.90
2022-08-22T05:30:40.342Z,99.90
2022-08-22T05:33:31.197Z,99.90
2022-08-22T05:36:07.735Z,99.90
2022-08-22T05:38:47.333Z,99.90
2022-08-22T05:41:22.092Z,99.90
2022-08-22T05:43:50.738Z,99.90
2022-08-22T05:46:43.774Z,99.90
2022-08-22T05:49:19.917Z,99.90
2022-08-22T05:52:07.633Z,99.90
2022-08-22T05:54:47.315Z,99.90
2022-08-22T05:57:14.485Z,99.90
2022-08-22T05:59:43.510Z,99.90
2022-08-22T06:02:34.000Z,99.90
2022-08-22T06:05:07.597Z,99.90
2022-08-22T06:07:51.761Z,99.90
2022-08-22T06:10:40.648Z,99.90
2022-08-22T06:13:17.414Z,99.90
2022-08-22T06:16:17.837Z,99.90
2022-08-22T06:18:46.256Z,99.90
2022-08-22T06:21:25.749Z,99.90
2022-08-22T06:24:05.405Z,99.90
2022-08-22T06:26:38.363Z,99.90
2022-08-22T06:29:07.559Z,99.90
2022-08-22T06:31:38.183Z,99.90
2022-08-22T06:34:29.144Z,99.90
2022-08-22T06:36:59.046Z,99.90
2022-08-22T06:39:49.160Z,99.90
2022-08-22T06:42:30.367Z,99.90
2022-08-22T06:45:17.893Z,99.90
2022-08-22T06:48:05.723Z,99.90
2022-08-22T06:50:45.705Z,99.90
2022-08-22T06:53:18.670Z,99.90
2022-08-22T06:55:57.686Z,99.90
2022-08-22T06:58:49.107Z,99.90
2022-08-22T07:01:24.370Z,99.90
2022-08-22T07:03:55.178Z,99.90
2022-08-22T07:06:36.276Z,99.90
2022-08-22T07:09:06.237Z,99.90
2022-08-22T07:11:39.861Z,99.90
2022-08-22T07:14:13.683Z,99.90
2022-08-22T07:16:45.761Z,99.90
2022-08-22T07:19:27.595Z,99.90
2022-08-22T07:21:57.555Z,99.90
2022-08-22T07:24:33.079Z,99.90
2022-08-22T07:27:32.271Z,99.90
2022-08-22T07:30:16.567Z,99.90
2022-08-22T07:33:26.661Z,99.90
2022-08-22T07:35:59.573Z,99.90
2022-08-22T07:38:47.144Z,99.90
2022-08-22T07:41:20.378Z,99.90
2022-08-22T07:43:49.653Z,99.90
2022-08-22T07:46:28.812Z,99.90
2022-08-22T07:49:10.697Z,99.90
2022-08-22T07:51:46.744Z,99.90
2022-08-22T07:54:35.818Z,99.90
2022-08-22T07:57:06.947Z,99.90
2022-08-22T07:59:37.356Z,99.90
2022-08-22T08:02:11.745Z,99.90
2022-08-22T08:04:40.807Z,99.90
2022-08-22T08:07:10.859Z,99.90
2022-08-22T08:09:43.354Z,99.90
2022-08-22T08:12:12.854Z,99.90
2022-08-22T08:14:46.237Z,98.90
2022-08-22T08:17:28.779Z,99.90
2022-08-22T08:20:00.615Z,99.90
2022-08-22T08:22:29.092Z,99.90
2022-08-22T08:24:58.604Z,99.90
2022-08-22T08:27:50.502Z,99.90
2022-08-22T08:30:44.109Z,99.90
2022-08-22T08:33:26.136Z,99.90
2022-08-22T08:36:07.013Z,96.90
2022-08-22T08:38:52.467Z,93.50
2022-08-22T08:42:10.615Z,99.10
2022-08-22T08:45:01.618Z,93.70
2022-08-22T08:47:47.938Z,97.90
2022-08-22T08:50:35.543Z,97.10
2022-08-22T08:53:08.925Z,97.50
2022-08-22T08:55:56.455Z,94.70
2022-08-22T08:58:45.954Z,91.20
2022-08-22T09:01:33.847Z,90.30
2022-08-22T09:04:15.916Z,93.40
2022-08-22T09:07:01.632Z,94.80
2022-08-22T09:09:52.420Z,95.60
2022-08-22T09:13:11.633Z,94.60
2022-08-22T09:16:06.804Z,87.50
2022-08-22T09:19:16.093Z,96.80
2022-08-22T09:22:14.638Z,93.60
2022-08-22T09:25:12.021Z,81.10
2022-08-22T09:28:11.175Z,90.10
2022-08-22T09:31:32.698Z,78.90
2022-08-22T09:34:25.363Z,89.10
2022-08-22T09:37:13.921Z,91.00
2022-08-22T09:40:18.875Z,79.10
2022-08-22T09:43:06.874Z,83.50
2022-08-22T09:46:08.122Z,75.70
2022-08-22T09:48:43.805Z,77.30
2022-08-22T09:51:40.012Z,75.30
2022-08-22T09:54:44.236Z,75.60
2022-08-22T09:57:17.943Z,76.50
2022-08-22T10:00:13.842Z,76.80
2022-08-22T10:02:55.977Z,75.60
2022-08-22T10:05:40.981Z,74.10
2022-08-22T10:08:33.307Z,74.10
2022-08-22T10:11:19.913Z,78.90
2022-08-22T10:13:56.600Z,78.90
2022-08-22T10:16:30.925Z,72.10
2022-08-22T10:19:23.190Z,68.70
2022-08-22T10:22:29.958Z,69.30
2022-08-22T10:25:29.017Z,70.80
2022-08-22T10:28:18.606Z,67.90
2022-08-22T10:31:13.662Z,69.50
2022-08-22T10:34:27.024Z,67.50
2022-08-22T10:37:24.493Z,69.30
2022-08-22T10:40:23.881Z,63.90
2022-08-22T10:42:59.310Z,62.20
2022-08-22T10:45:36.311Z,61.00
2022-08-22T10:48:22.845Z,67.40
2022-08-22T10:50:57.696Z,62.80
2022-08-22T10:53:42.966Z,63.10
2022-08-22T10:56:43.858Z,61.20
2022-08-22T10:59:13.969Z,59.80
2022-08-22T11:02:13.156Z,61.20
2022-08-22T11:05:07.875Z,59.30
2022-08-22T11:07:55.894Z,61.20
2022-08-22T11:10:41.467Z,58.10
2022-08-22T11:13:24.134Z,62.40
2022-08-22T11:16:15.324Z,58.90
2022-08-22T11:18:45.155Z,60.80
2022-08-22T11:22:10.041Z,57.60
2022-08-22T11:25:04.007Z,58.60
2022-08-22T11:27:59.294Z,60.90
2022-08-22T11:31:00.305Z,62.00
2022-08-22T11:33:48.101Z,59.50
2022-08-22T11:36:17.777Z,55.90
2022-08-22T11:38:59.006Z,57.50
2022-08-22T11:42:06.054Z,56.60
2022-08-22T11:44:55.262Z,58.40
2022-08-22T11:47:28.897Z,54.30
2022-08-22T11:50:02.830Z,58.60
2022-08-22T11:52:40.876Z,60.90
2022-08-22T11:55:33.248Z,56.20
2022-08-22T11:58:45.947Z,56.10
2022-08-22T12:01:18.577Z,58.30
2022-08-22T12:04:04.407Z,57.60
2022-08-22T12:07:09.007Z,61.30
2022-08-22T12:09:47.832Z,60.10
2022-08-22T12:12:39.277Z,60.60
2022-08-22T12:15:43.101Z,57.70
2022-08-22T12:18:47.277Z,58.30
2022-08-22T12:21:27.117Z,54.40
2022-08-22T12:24:00.259Z,56.30
2022-08-22T12:26:33.524Z,54.90
2022-08-22T12:29:15.357Z,58.90
2022-08-22T12:31:59.053Z,60.50
2022-08-22T12:34:44.113Z,59.10
2022-08-22T12:37:21.888Z,58.40
2022-08-22T12:40:16.536Z,57.40
2022-08-22T12:43:06.464Z,55.70
2022-08-22T12:46:16.735Z,53.40
2022-08-22T12:48:59.938Z,53.10
2022-08-22T12:51:30.951Z,53.10
2022-08-22T12:54:32.046Z,54.10
2022-08-22T12:57:23.308Z,54.70
2022-08-22T13:00:02.768Z,50.90
2022-08-22T13:02:34.157Z,51.30
2022-08-22T13:05:24.792Z,48.20
2022-08-22T13:08:02.387Z,49.90
2022-08-22T13:10:54.498Z,54.40
2022-08-22T13:13:38.549Z,54.10
2022-08-22T13:16:11.658Z,49.70
2022-08-22T13:18:59.421Z,50.00
2022-08-22T13:21:36.311Z,51.70
2022-08-22T13:24:52.505Z,51.00
2022-08-22T13:27:50.551Z,48.30
2022-08-22T13:30:27.607Z,52.00
2022-08-22T13:33:03.150Z,52.80
2022-08-22T13:35:44.518Z,53.60
2022-08-22T13:38:26.011Z,57.30
2022-08-22T13:40:55.845Z,56.70
2022-08-22T13:43:28.507Z,55.80
2022-08-22T13:46:02.035Z,53.20
2022-08-22T13:49:00.624Z,54.30
2022-08-22T13:51:46.756Z,56.70
2022-08-22T13:54:16.945Z,56.30
2022-08-22T13:57:07.461Z,53.30
2022-08-22T14:00:28.532Z,50.20
2022-08-22T14:02:59.826Z,50.50
2022-08-22T14:05:45.443Z,50.60
2022-08-22T14:08:18.471Z,51.80
2022-08-22T14:11:01.850Z,50.30
2022-08-22T14:13:55.845Z,49.10
2022-08-22T14:16:25.016Z,49.80
2022-08-22T14:19:01.042Z,48.60
2022-08-22T14:21:40.618Z,48.00
2022-08-22T14:24:25.665Z,47.90
2022-08-22T14:26:57.934Z,47.60
2022-08-22T14:29:31.877Z,48.70
2022-08-22T14:32:32.552Z,49.20
2022-08-22T14:35:16.955Z,48.90
2022-08-22T14:37:55.366Z,50.20
2022-08-22T14:40:28.815Z,51.40
2022-08-22T14:43:07.989Z,53.80
2022-08-22T14:45:39.755Z,54.30
2022-08-22T14:48:30.921Z,55.00
2022-08-22T14:51:06.331Z,56.10
2022-08-22T14:53:40.496Z,56.60
2022-08-22T14:56:27.821Z,57.40
2022-08-22T14:59:05.227Z,57.00
2022-08-22T15:01:51.624Z,57.10
2022-08-22T15:04:34.343Z,56.80
2022-08-22T15:07:02.654Z,56.20
2022-08-22T15:09:42.896Z,57.60
2022-08-22T15:12:21.924Z,54.40
2022-08-22T15:14:53.644Z,55.00
2022-08-22T15:17:35.837Z,53.40
2022-08-22T15:20:28.703Z,51.80
2022-08-22T15:23:09.775Z,51.50
2022-08-22T15:25:41.178Z,51.00
2022-08-22T15:28:14.476Z,52.40
2022-08-22T15:31:03.833Z,50.80
2022-08-22T15:33:33.474Z,50.50
2022-08-22T15:36:21.045Z,50.40
2022-08-22T15:39:29.615Z,49.90
2022-08-22T15:41:58.754Z,50.70
2022-08-22T15:44:33.487Z,50.30
2022-08-22T15:47:31.502Z,50.00
2022-08-22T15:50:07.073Z,49.80
2022-08-22T15:53:13.726Z,50.70
2022-08-22T15:56:07.244Z,50.40
2022-08-22T15:58:40.465Z,50.80
2022-08-22T16:01:22.350Z,51.40
2022-08-22T16:04:00.346Z,52.30
2022-08-22T16:06:48.796Z,50.40
2022-08-22T16:09:32.538Z,51.70
2022-08-22T16:12:04.156Z,50.40
2022-08-22T16:14:33.986Z,51.10
2022-08-22T16:17:07.372Z,51.00
2022-08-22T16:19:39.993Z,50.60
2022-08-22T16:22:08.344Z,50.90
2022-08-22T16:24:58.320Z,51.00
2022-08-22T16:27:27.316Z,51.30
2022-08-22T16:30:05.614Z,51.50
2022-08-22T16:32:33.643Z,51.10
2022-08-22T16:35:00.823Z,51.60
2022-08-22T16:37:49.516Z,52.30
2022-08-22T16:40:22.767Z,52.80
2022-08-22T16:43:12.315Z,52.90
2022-08-22T16:45:48.744Z,54.60
2022-08-22T16:48:26.511Z,54.50
2022-08-22T16:51:11.852Z,55.20
2022-08-22T16:53:45.809Z,56.70
2022-08-22T16:56:53.464Z,58.30
2022-08-22T16:59:57.767Z,59.50
2022-08-22T17:02:33.395Z,59.80
2022-08-22T17:05:31.085Z,60.70
2022-08-22T17:08:22.692Z,61.90
2022-08-22T17:10:57.867Z,63.10
2022-08-22T17:13:43.311Z,63.90
2022-08-22T17:16:52.042Z,64.90
2022-08-22T17:19:39.621Z,66.20
2022-08-22T17:22:30.568Z,67.70
2022-08-22T17:25:35.992Z,68.80
2022-08-22T17:28:37.404Z,70.50
2022-08-22T17:31:10.754Z,72.40
2022-08-22T17:34:18.740Z,73.90
2022-08-22T17:37:17.150Z,75.90
2022-08-22T17:40:03.640Z,79.00
2022-08-22T17:42:49.727Z,80.70
2022-08-22T17:45:27.855Z,82.00
2022-08-22T17:48:12.693Z,82.70
2022-08-22T17:51:03.545Z,85.10
2022-08-22T17:53:38.365Z,88.40
2022-08-22T17:56:33.076Z,90.20
2022-08-22T17:59:14.677Z,90.40
2022-08-22T18:02:13.990Z,90.70
2022-08-22T18:04:47.924Z,91.80
2022-08-22T18:07:15.074Z,93.50
2022-08-22T18:10:05.011Z,94.40
2022-08-22T18:12:40.824Z,95.20
2022-08-22T18:15:19.175Z,96.10
2022-08-22T18:18:36.352Z,96.80
2022-08-22T18:21:27.357Z,97.50
2022-08-22T18:24:16.702Z,98.20
2022-08-22T18:26:46.416Z,99.10
2022-08-22T18:29:21.333Z,99.90
2022-08-22T18:31:51.944Z,99.90
2022-08-22T18:34:47.240Z,99.90
2022-08-22T18:37:14.494Z,99.90
2022-08-22T18:40:00.181Z,99.90
2022-08-22T18:42:36.934Z,99.90
2022-08-22T18:45:04.856Z,99.90
2022-08-22T18:47:34.695Z,99.90
2022-08-22T18:50:22.818Z,99.90
2022-08-22T18:52:53.424Z,99.90
2022-08-22T18:55:40.092Z,99.90
2022-08-22T18:58:13.290Z,99.90
2022-08-22T19:01:06.679Z,99.90
2022-08-22T19:04:12.230Z,99.90
2022-08-22T19:07:26.275Z,99.90
2022-08-22T19:10:29.937Z,99.90
2022-08-22T19:13:28.135Z,99.90
2022-08-22T19:15:58.038Z,99.90
2022-08-22T19:18:42.924Z,99.90
2022-08-22T19:21:48.245Z,99.90
2022-08-22T19:24:21.187Z,99.90
2022-08-22T19:27:10.005Z,99.90
2022-08-22T19:29:37.283Z,99.90
2022-08-22T19:32:13.233Z,99.90
2022-08-22T19:34:46.809Z,99.90
2022-08-22T19:37:30.729Z,99.90
2022-08-22T19:40:06.733Z,99.90
2022-08-22T19:42:36.863Z,99.90
2022-08-22T19:45:09.683Z,99.90
2022-08-22T19:47:38.096Z,99.90
2022-08-22T19:50:17.286Z,99.90
2022-08-22T19:52:45.138Z,99.90
2022-08-22T19:55:42.779Z,99.90
2022-08-22T19:58:31.919Z,99.90
2022-08-22T20:01:22.539Z,99.90
2022-08-22T20:04:01.265Z,99.90
2022-08-22T20:06:45.005Z,99.90
2022-08-22T20:09:31.188Z,99.90
2022-08-22T20:12:26.003Z,99.90
2022-08-22T20:14:53.706Z,99.90
2022-08-22T20:17:26.943Z,99.90
2022-08-22T20:20:18.877Z,99.90
2022-08-22T20:22:49.513Z,99.90
2022-08-22T20:25:41.471Z,99.90
2022-08-22T20:28:36.632Z,99.90
2022-08-22T20:31:09.566Z,99.90
2022-08-22T20:33:43.240Z,99.90
2022-08-22T20:36:27.670Z,99.90
2022-08-22T20:39:00.448Z,99.90
2022-08-22T20:41:42.507Z,99.90
2022-08-22T20:44:40.133Z,99.90
2022-08-22T20:47:14.149Z,99.90
2022-08-22T20:49:52.354Z,99.90
2022-08-22T20:52:38.688Z,99.90
2022-08-22T20:55:07.871Z,99.90
2022-08-22T20:57:43.789Z,99.90
2022-08-22T21:00:16.614Z,99.90
2022-08-22T21:03:00.749Z,99.90
2022-08-22T21:05:43.203Z,99.90
2022-08-22T21:08:22.331Z,99.90
2022-08-22T21:11:22.322Z,99.90
2022-08-22T21:13:50.269Z,99.90
2022-08-22T21:16:31.250Z,99.90
2022-08-22T21:19:01.784Z,99.90
2022-08-22T21:21:31.722Z,99.90
2022-08-22T21:24:03.875Z,99.90
2022-08-22T21:26:54.127Z,99.90
2022-08-22T21:29:23.637Z,99.90
2022-08-22T21:32:04.509Z,99.90
2022-08-22T21:34:44.567Z,99.90
2022-08-22T21:37:17.634Z,99.90
2022-08-22T21:39:48.279Z,99.90
2022-08-22T21:42:37.547Z,99.90
2022-08-22T21:45:11.164Z,99.90
2022-08-22T21:47:41.659Z,99.90
2022-08-22T21:50:26.566Z,99.90
2022-08-22T21:52:56.980Z,99.90
2022-08-22T21:55:37.444Z,99.90
2022-08-22T21:58:35.540Z,99.90
2022-08-22T22:01:25.029Z,99.90
2022-08-22T22:03:52.348Z,99.90
2022-08-22T22:06:19.975Z,99.90
2022-08-22T22:08:47.221Z,99.90
2022-08-22T22:11:15.885Z,99.90
2022-08-22T22:13:44.200Z,99.90
2022-08-22T22:16:15.044Z,99.90
2022-08-22T22:18:42.249Z,99.90
2022-08-22T22:21:09.620Z,99.90
2022-08-22T22:23:36.921Z,99.90
2022-08-22T22:26:05.964Z,99.90
2022-08-22T22:28:40.270Z,99.90
2022-08-22T22:31:08.306Z,99.90
2022-08-22T22:33:40.067Z,99.90
2022-08-22T22:36:25.418Z,99.90
2022-08-22T22:38:54.102Z,99.90
2022-08-22T22:41:25.613Z,99.90
2022-08-22T22:43:54.185Z,99.90
2022-08-22T22:46:22.437Z,99.90
2022-08-22T22:48:50.046Z,99.90
2022-08-22T22:51:17.354Z,99.90
2022-08-22T22:53:45.125Z,99.90
2022-08-22T22:56:16.087Z,99.90
2022-08-22T22:58:43.425Z,99.90
2022-08-22T23:01:30.968Z,99.90
2022-08-22T23:04:05.485Z,99.90
2022-08-22T23:06:33.923Z,99.90
2022-08-22T23:09:01.461Z,99.90
2022-08-22T23:11:30.553Z,99.90
2022-08-22T23:13:57.912Z,99.90
2022-08-22T23:16:28.221Z,99.90
2022-08-22T23:18:56.057Z,99.90
2022-08-22T23:21:28.871Z,99.90
2022-08-22T23:23:58.356Z,99.90
2022-08-22T23:26:25.843Z,99.90
2022-08-22T23:28:53.140Z,99.90
2022-08-22T23:31:32.474Z,99.90
2022-08-22T23:34:06.243Z,99.90
2022-08-22T23:36:34.266Z,99.90
2022-08-22T23:39:01.525Z,99.90
2022-08-22T23:41:29.172Z,99.90
2022-08-22T23:43:56.489Z,99.90
2022-08-22T23:46:26.318Z,99.90
2022-08-22T23:48:54.553Z,99.90
2022-08-22T23:51:27.146Z,99.90
2022-08-22T23:53:56.955Z,99.90
2022-08-22T23:56:28.863Z,99.90
2022-08-22T23:58:57.364Z,99.90
